createdAt,value
2022-12-04T00:01:23.283Z,18.37
2022-12-04T00:06:24.647Z,17.37
2022-12-04T00:08:53.508Z,17.30
2022-12-04T00:11:26.277Z,16.60
2022-12-04T00:13:55.792Z,19.13
2022-12-04T00:16:26.263Z,17.87
2022-12-04T00:18:54.845Z,16.57
2022-12-04T00:21:23.613Z,18.50
2022-12-04T00:23:51.594Z,17.13
2022-12-04T00:26:22.486Z,16.17
2022-12-04T00:28:50.912Z,17.67
2022-12-04T00:31:21.673Z,20.50
2022-12-04T00:33:49.824Z,15.63
2022-12-04T00:36:21.241Z,16.50
2022-12-04T00:38:52.107Z,19.83
2022-12-04T00:41:22.798Z,15.37
2022-12-04T00:43:50.732Z,18.87
2022-12-04T00:46:18.655Z,21.13
2022-12-04T00:48:47.016Z,21.57
2022-12-04T00:51:18.656Z,16.10
2022-12-04T00:53:46.391Z,18.33
2022-12-04T00:56:18.866Z,18.37
2022-12-04T01:01:17.187Z,13.57
2022-12-04T01:03:45.916Z,18.47
2022-12-04T01:06:30.386Z,18.80
2022-12-04T01:08:58.963Z,20.20
2022-12-04T01:11:28.285Z,18.27
2022-12-04T01:13:56.854Z,17.17
2022-12-04T01:16:28.821Z,18.93
2022-12-04T01:18:56.950Z,16.75
2022-12-04T01:21:24.875Z,17.13
2022-12-04T01:23:52.697Z,14.83
2022-12-04T01:26:20.709Z,19.73
2022-12-04T01:28:48.456Z,17.07
2022-12-04T01:31:18.213Z,15.37
2022-12-04T01:33:46.065Z,16.43
2022-12-04T01:36:17.348Z,23.43
2022-12-04T01:38:45.460Z,18.80
2022-12-04T01:41:14.733Z,17.93
2022-12-04T01:43:42.908Z,19.77
2022-12-04T01:46:11.394Z,19.60
2022-12-04T01:48:45.013Z,19.03
2022-12-04T01:51:23.632Z,18.00
2022-12-04T01:53:54.929Z,17.60
2022-12-04T01:56:33.039Z,20.60
2022-12-04T01:59:03.119Z,19.47
2022-12-04T02:01:38.910Z,20.70
2022-12-04T02:04:06.698Z,17.33
2022-12-04T02:06:34.475Z,17.23
2022-12-04T02:09:02.240Z,20.60
2022-12-04T02:11:43.117Z,19.33
2022-12-04T02:14:41.307Z,20.80
2022-12-04T02:17:20.633Z,20.87
2022-12-04T02:20:10.453Z,18.67
2022-12-04T02:23:00.732Z,20.60
2022-12-04T02:25:44.714Z,18.13
2022-12-04T02:28:36.166Z,20.40
2022-12-04T02:31:07.565Z,16.17
2022-12-04T02:33:45.163Z,18.77
2022-12-04T02:36:24.659Z,17.57
2022-12-04T02:39:08.888Z,16.33
2022-12-04T02:41:46.878Z,20.63
2022-12-04T02:44:23.553Z,21.50
2022-12-04T02:46:57.365Z,21.57
2022-12-04T02:49:32.428Z,19.77
2022-12-04T02:52:01.675Z,22.47
2022-12-04T02:54:41.601Z,17.60
2022-12-04T02:57:14.398Z,20.70
2022-12-04T02:59:45.954Z,16.10
2022-12-04T03:02:28.494Z,16.75
2022-12-04T03:05:00.684Z,17.95
2022-12-04T03:07:34.504Z,17.00
2022-12-04T03:10:11.127Z,18.97
2022-12-04T03:12:45.265Z,17.77
2022-12-04T03:15:19.694Z,16.80
2022-12-04T03:17:57.444Z,17.73
2022-12-04T03:20:26.048Z,19.27
2022-12-04T03:22:59.799Z,17.50
2022-12-04T03:25:35.418Z,17.37
2022-12-04T03:28:09.239Z,17.47
2022-12-04T03:30:42.831Z,18.00
2022-12-04T03:33:17.027Z,17.07
2022-12-04T03:35:55.103Z,17.93
2022-12-04T03:38:42.690Z,18.63
2022-12-04T03:41:22.509Z,18.37
2022-12-04T03:43:53.808Z,16.23
2022-12-04T03:46:35.466Z,19.53
2022-12-04T03:49:19.068Z,20.13
2022-12-04T03:51:54.647Z,15.07
2022-12-04T03:54:29.435Z,15.37
2022-12-04T03:57:03.276Z,16.27
2022-12-04T03:59:40.953Z,16.17
2022-12-04T04:02:13.307Z,19.97
2022-12-04T04:07:21.404Z,18.47
2022-12-04T04:09:53.777Z,15.43
2022-12-04T04:12:25.974Z,15.70
2022-12-04T04:15:13.485Z,23.08
2022-12-04T04:17:59.868Z,17.53
2022-12-04T04:21:02.469Z,20.60
2022-12-04T04:23:52.140Z,15.48
2022-12-04T04:26:23.517Z,17.47
2022-12-04T04:28:53.740Z,17.92
2022-12-04T04:31:39.559Z,18.33
2022-12-04T04:34:20.885Z,17.53
2022-12-04T04:37:17.822Z,17.00
2022-12-04T04:39:58.563Z,18.47
2022-12-04T04:42:38.813Z,17.30
2022-12-04T04:45:22.730Z,19.23
2022-12-04T04:48:03.463Z,19.33
2022-12-04T04:50:35.297Z,20.93
2022-12-04T04:53:09.823Z,21.48
2022-12-04T04:55:41.533Z,17.33
2022-12-04T04:58:12.252Z,19.70
2022-12-04T05:00:43.967Z,22.40
2022-12-04T05:03:14.238Z,19.80
2022-12-04T05:05:44.464Z,19.63
2022-12-04T05:08:15.395Z,18.43
2022-12-04T05:10:43.931Z,18.30
2022-12-04T05:13:18.276Z,21.30
2022-12-04T05:15:58.015Z,18.70
2022-12-04T05:18:29.085Z,14.97
2022-12-04T05:20:58.603Z,18.07
2022-12-04T05:23:29.336Z,15.57
2022-12-04T05:26:04.339Z,16.73
2022-12-04T05:28:33.721Z,17.60
2022-12-04T05:31:05.086Z,20.67
2022-12-04T05:33:34.555Z,14.25
2022-12-04T05:36:08.035Z,17.53
2022-12-04T05:38:39.127Z,21.47
2022-12-04T05:41:09.986Z,16.20
2022-12-04T05:43:40.134Z,16.73
2022-12-04T05:46:12.567Z,19.77
2022-12-04T05:48:44.334Z,20.43
2022-12-04T05:51:14.343Z,16.77
2022-12-04T05:53:44.418Z,18.77
2022-12-04T05:56:12.255Z,16.30
2022-12-04T05:58:40.105Z,17.23
2022-12-04T06:01:11.100Z,15.17
2022-12-04T06:03:40.787Z,21.33
2022-12-04T06:06:21.101Z,15.33
2022-12-04T06:08:55.650Z,16.90
2022-12-04T06:11:28.687Z,20.50
2022-12-04T06:13:58.396Z,20.63
2022-12-04T06:16:32.689Z,17.33
2022-12-04T06:19:06.381Z,20.60
2022-12-04T06:21:36.916Z,19.03
2022-12-04T06:24:06.242Z,19.10
2022-12-04T06:26:35.435Z,17.43
2022-12-04T06:29:03.604Z,20.33
2022-12-04T06:31:33.736Z,20.90
2022-12-04T06:34:01.597Z,17.67
2022-12-04T06:36:29.333Z,22.43
2022-12-04T06:38:58.158Z,17.87
2022-12-04T06:41:27.092Z,18.57
2022-12-04T06:43:55.314Z,20.27
2022-12-04T06:46:27.074Z,16.53
2022-12-04T06:51:30.721Z,18.60
2022-12-04T06:54:02.024Z,17.60
2022-12-04T06:56:35.636Z,13.60
2022-12-04T06:59:10.322Z,17.17
2022-12-04T07:01:39.966Z,16.50
2022-12-04T07:04:09.062Z,16.90
2022-12-04T07:06:41.369Z,15.63
2022-12-04T07:09:17.656Z,17.40
2022-12-04T07:11:47.115Z,18.33
2022-12-04T07:14:16.382Z,19.30
2022-12-04T07:16:44.975Z,17.83
2022-12-04T07:19:14.824Z,21.93
2022-12-04T07:21:43.149Z,15.83
2022-12-04T07:24:16.846Z,17.77
2022-12-04T07:26:46.249Z,14.73
2022-12-04T07:29:14.480Z,17.40
2022-12-04T07:31:42.267Z,15.33
2022-12-04T07:34:10.455Z,19.27
2022-12-04T07:36:39.200Z,16.40
2022-12-04T07:39:06.919Z,18.83
2022-12-04T07:41:34.430Z,19.63
2022-12-04T07:44:03.720Z,17.37
2022-12-04T07:46:31.721Z,16.00
2022-12-04T07:48:59.769Z,16.67
2022-12-04T07:51:31.896Z,19.67
2022-12-04T07:54:04.003Z,17.50
2022-12-04T07:56:34.780Z,19.83
2022-12-04T07:59:04.856Z,17.97
2022-12-04T08:01:36.085Z,16.93
2022-12-04T08:04:05.619Z,15.80
2022-12-04T08:06:35.533Z,15.13
2022-12-04T08:09:09.249Z,16.67
2022-12-04T08:11:37.836Z,14.67
2022-12-04T08:14:09.622Z,13.90
2022-12-04T08:16:38.732Z,17.23
2022-12-04T08:19:08.256Z,15.37
2022-12-04T08:21:42.434Z,17.33
2022-12-04T08:24:10.954Z,16.10
2022-12-04T08:26:38.869Z,13.43
2022-12-04T08:29:08.501Z,15.97
2022-12-04T08:31:38.067Z,14.73
2022-12-04T08:34:08.255Z,16.43
2022-12-04T08:36:38.389Z,15.00
2022-12-04T08:39:07.202Z,15.03
2022-12-04T08:41:36.211Z,14.23
2022-12-04T08:44:05.859Z,16.20
2022-12-04T08:46:36.251Z,13.37
2022-12-04T08:49:05.115Z,16.77
2022-12-04T08:51:36.325Z,14.47
2022-12-04T08:54:08.246Z,14.70
2022-12-04T08:56:37.895Z,17.77
2022-12-04T08:59:06.261Z,15.90
2022-12-04T09:01:34.344Z,16.33
2022-12-04T09:04:03.420Z,16.77
2022-12-04T09:06:32.054Z,18.77
2022-12-04T09:09:00.879Z,14.97
2022-12-04T09:11:30.408Z,13.23
2022-12-04T09:13:58.336Z,14.13
2022-12-04T09:16:26.651Z,13.20
2022-12-04T09:18:55.415Z,14.80
2022-12-04T09:21:24.953Z,12.77
2022-12-04T09:23:53.199Z,14.73
2022-12-04T09:26:25.763Z,13.70
2022-12-04T09:28:55.087Z,13.15
2022-12-04T09:31:24.041Z,13.83
2022-12-04T09:33:51.967Z,12.67
2022-12-04T09:36:19.898Z,12.17
2022-12-04T09:38:49.861Z,12.83
2022-12-04T11:27:56.240Z,13.77
2022-12-04T11:32:55.333Z,16.37
2022-12-04T11:35:28.080Z,10.97
2022-12-04T11:38:16.397Z,12.90
2022-12-04T11:40:50.699Z,13.50
2022-12-04T11:43:19.405Z,13.87
2022-12-04T11:46:04.833Z,17.57
2022-12-04T11:48:41.840Z,14.90
2022-12-04T11:51:38.700Z,11.27
2022-12-04T11:54:37.365Z,12.77
2022-12-04T11:57:27.041Z,12.33
2022-12-04T12:00:13.232Z,14.47
2022-12-04T12:03:02.500Z,10.70
2022-12-04T12:05:55.062Z,12.00
2022-12-04T12:08:48.468Z,14.00
2022-12-04T12:11:30.331Z,14.00
2022-12-04T12:14:14.706Z,7.57
2022-12-04T12:17:05.561Z,13.77
2022-12-04T12:20:04.127Z,11.17
2022-12-04T12:23:05.156Z,15.90
2022-12-04T12:25:51.687Z,11.30
2022-12-04T12:28:53.553Z,13.97
2022-12-04T12:31:48.507Z,13.07
2022-12-04T12:34:37.480Z,17.53
2022-12-04T12:37:16.700Z,10.53
2022-12-04T12:39:54.845Z,10.67
2022-12-04T12:42:28.849Z,13.87
2022-12-04T12:45:04.592Z,12.53
2022-12-04T12:47:39.908Z,12.90
2022-12-04T12:50:18.736Z,13.10
2022-12-04T12:53:03.761Z,17.53
2022-12-04T12:55:37.134Z,12.37
2022-12-04T12:58:13.907Z,11.37
2022-12-04T13:00:51.018Z,14.20
2022-12-04T13:03:40.406Z,14.87
2022-12-04T13:06:16.437Z,12.97
2022-12-04T13:09:04.466Z,13.70
2022-12-04T13:11:33.387Z,11.33
2022-12-04T13:14:03.775Z,10.40
2022-12-04T13:16:49.069Z,12.30
2022-12-04T13:19:25.926Z,10.50
2022-12-04T13:22:21.690Z,8.97
2022-12-04T13:25:12.581Z,11.17
2022-12-04T13:27:58.070Z,10.83
2022-12-04T13:30:46.871Z,11.70
2022-12-04T13:33:37.748Z,9.43
2022-12-04T13:36:29.829Z,7.33
2022-12-04T13:39:23.204Z,9.13
2022-12-04T13:41:59.631Z,10.97
2022-12-04T13:44:29.454Z,10.77
2022-12-04T13:47:03.612Z,9.43
2022-12-04T13:49:35.104Z,11.60
2022-12-04T13:52:05.979Z,10.90
2022-12-04T13:54:36.711Z,10.53
2022-12-04T13:57:22.637Z,8.27
2022-12-04T13:59:50.788Z,7.80
2022-12-04T14:02:29.313Z,8.30
2022-12-04T14:05:07.532Z,10.90
2022-12-04T14:07:38.486Z,11.30
2022-12-04T14:10:28.625Z,8.47
2022-12-04T14:13:02.470Z,10.20
2022-12-04T14:15:37.362Z,9.90
2022-12-04T14:18:28.732Z,11.33
2022-12-04T14:21:06.002Z,8.13
2022-12-04T14:23:40.561Z,10.13
2022-12-04T14:29:49.695Z,9.50
2022-12-04T14:32:24.771Z,9.43
2022-12-04T14:34:54.684Z,10.23
2022-12-04T14:37:34.692Z,7.97
2022-12-04T14:40:07.621Z,12.00
2022-12-04T14:42:39.499Z,9.17
2022-12-04T14:45:31.627Z,8.57
2022-12-04T14:48:30.015Z,6.88
2022-12-04T14:51:20.206Z,8.37
2022-12-04T14:54:15.964Z,5.43
2022-12-04T14:57:06.900Z,7.77
2022-12-04T14:59:45.309Z,8.77
2022-12-04T15:02:19.132Z,7.00
2022-12-04T15:04:49.289Z,10.63
2022-12-04T15:07:26.789Z,7.73
2022-12-04T15:10:12.567Z,9.73
2022-12-04T15:12:45.588Z,9.40
2022-12-04T15:15:27.637Z,6.10
2022-12-04T15:18:04.735Z,10.93
2022-12-04T15:20:39.373Z,8.40
2022-12-04T15:23:07.151Z,10.00
2022-12-04T15:25:48.591Z,9.37
2022-12-04T15:28:32.939Z,11.17
2022-12-04T15:31:15.676Z,9.27
2022-12-04T15:33:48.625Z,10.70
2022-12-04T15:36:31.974Z,10.40
2022-12-04T15:39:00.597Z,8.50
2022-12-04T15:41:33.808Z,9.07
2022-12-04T15:44:22.157Z,10.13
2022-12-04T15:46:55.924Z,8.07
2022-12-04T15:49:29.263Z,8.67
2022-12-04T15:52:19.826Z,8.90
2022-12-04T15:54:56.901Z,12.77
2022-12-04T15:57:32.643Z,8.37
2022-12-04T16:00:06.050Z,7.80
2022-12-04T16:02:40.341Z,10.90
2022-12-04T16:05:30.215Z,12.00
2022-12-04T16:08:03.585Z,11.20
2022-12-04T16:10:36.869Z,9.53
2022-12-04T16:13:07.829Z,9.73
2022-12-04T16:15:41.817Z,7.83
2022-12-04T16:18:14.974Z,11.10
2022-12-04T16:20:44.395Z,7.10
2022-12-04T16:23:12.369Z,8.73
2022-12-04T16:25:43.705Z,10.10
2022-12-04T16:28:18.026Z,11.50
2022-12-04T16:30:45.768Z,8.33
2022-12-04T16:33:15.959Z,11.20
2022-12-04T16:35:43.833Z,9.23
2022-12-04T16:38:18.386Z,8.10
2022-12-04T16:40:50.841Z,7.50
2022-12-04T16:43:21.349Z,11.73
2022-12-04T16:45:54.650Z,10.43
2022-12-04T16:48:24.988Z,10.57
2022-12-04T16:50:58.912Z,9.63
2022-12-04T16:53:26.521Z,11.33
2022-12-04T16:55:59.979Z,12.57
2022-12-04T16:58:27.888Z,10.10
2022-12-04T17:00:57.002Z,11.33
2022-12-04T17:03:28.850Z,9.07
2022-12-04T17:05:57.642Z,9.48
2022-12-04T17:08:25.448Z,14.73
2022-12-04T17:10:56.389Z,13.83
2022-12-04T17:13:24.198Z,10.50
2022-12-04T17:15:51.674Z,13.63
2022-12-04T17:18:21.290Z,11.13
2022-12-04T17:20:49.642Z,10.87
2022-12-04T17:23:17.382Z,11.57
2022-12-04T17:25:45.239Z,12.20
2022-12-04T17:28:12.800Z,9.33
2022-12-04T17:30:44.776Z,10.43
2022-12-04T17:33:12.717Z,8.60
2022-12-04T17:35:43.721Z,15.83
2022-12-04T17:38:11.361Z,10.30
2022-12-04T17:40:39.001Z,14.03
2022-12-04T17:43:06.580Z,13.23
2022-12-04T17:45:39.775Z,13.03
2022-12-04T17:48:07.536Z,12.53
2022-12-04T17:50:35.049Z,13.10
2022-12-04T17:53:05.218Z,14.37
2022-12-04T17:55:35.224Z,12.50
2022-12-04T17:58:03.140Z,14.57
2022-12-04T18:00:30.904Z,11.70
2022-12-04T18:02:58.592Z,10.57
2022-12-04T18:05:26.251Z,12.03
2022-12-04T18:07:54.921Z,14.87
2022-12-04T18:10:22.600Z,8.70
2022-12-04T18:12:50.219Z,11.60
2022-12-04T18:15:17.824Z,14.77
2022-12-04T18:17:45.575Z,12.97
2022-12-04T18:20:13.967Z,11.27
2022-12-04T18:22:41.667Z,13.40
2022-12-04T18:25:10.923Z,10.60
2022-12-04T18:27:41.883Z,13.13
2022-12-04T18:30:17.389Z,12.53
2022-12-04T18:32:45.449Z,13.40
2022-12-04T18:35:13.070Z,16.23
2022-12-04T18:37:40.841Z,14.13
2022-12-04T18:40:09.272Z,12.30
2022-12-04T18:42:37.141Z,12.20
2022-12-04T18:45:05.235Z,10.40
2022-12-04T18:47:32.986Z,14.77
2022-12-04T18:50:00.807Z,14.13
2022-12-04T18:52:28.520Z,16.97
2022-12-04T18:54:56.168Z,12.57
2022-12-04T18:57:27.267Z,10.60
2022-12-04T18:59:55.914Z,12.73
2022-12-04T19:02:24.131Z,13.90
2022-12-04T19:04:51.794Z,12.90
2022-12-04T19:07:19.380Z,12.80
2022-12-04T19:10:10.566Z,14.87
2022-12-04T19:12:34.541Z,9.87
2022-12-04T19:15:02.259Z,16.33
2022-12-04T19:17:35.593Z,16.87
2022-12-04T19:20:03.286Z,11.87
2022-12-04T19:22:31.214Z,11.67
2022-12-04T19:25:00.336Z,14.80
2022-12-04T19:27:28.296Z,13.03
2022-12-04T19:29:56.951Z,16.83
2022-12-04T19:32:25.395Z,14.10
2022-12-04T19:34:53.927Z,13.80
2022-12-04T19:37:24.108Z,11.63
2022-12-04T19:39:51.744Z,14.50
2022-12-04T19:42:19.371Z,13.40
2022-12-04T19:44:49.766Z,13.83
2022-12-04T19:47:18.356Z,14.10
2022-12-04T19:49:46.769Z,13.50
2022-12-04T19:52:14.910Z,12.53
2022-12-04T19:54:42.567Z,13.37
2022-12-04T19:57:10.528Z,12.83
2022-12-04T19:59:43.085Z,14.33
2022-12-04T20:02:13.599Z,17.10
2022-12-04T20:04:44.216Z,13.77
2022-12-04T20:07:14.172Z,11.80
2022-12-04T20:09:48.742Z,12.90
2022-12-04T20:12:19.450Z,13.27
2022-12-04T20:14:46.947Z,13.13
2022-12-04T20:17:17.631Z,13.60
2022-12-04T20:19:45.177Z,15.43
2022-12-04T20:22:12.827Z,13.70
2022-12-04T20:24:40.318Z,10.67
2022-12-04T20:27:08.083Z,15.30
2022-12-04T20:29:37.761Z,13.20
2022-12-04T20:32:07.860Z,13.00
2022-12-04T20:34:44.621Z,26.73
2022-12-04T20:37:12.380Z,16.30
2022-12-04T20:39:42.723Z,14.87
2022-12-04T20:42:10.338Z,15.30
2022-12-04T20:44:37.991Z,17.43
2022-12-04T20:47:05.725Z,13.33
2022-12-04T20:49:33.418Z,13.80
2022-12-04T20:52:01.105Z,12.53
2022-12-04T20:54:28.577Z,12.97
2022-12-04T20:56:57.072Z,14.33
2022-12-04T20:59:28.192Z,13.00
2022-12-04T21:01:56.112Z,12.50
2022-12-04T21:04:23.999Z,14.37
2022-12-04T21:06:51.492Z,14.47
2022-12-04T21:09:23.576Z,17.30
2022-12-04T21:11:53.554Z,15.13
2022-12-04T21:14:42.382Z,14.40
2022-12-04T21:17:17.012Z,14.00
2022-12-04T21:19:45.776Z,14.77
2022-12-04T21:22:13.787Z,13.80
2022-12-04T21:24:42.330Z,15.53
2022-12-04T21:27:15.675Z,17.93
2022-12-04T21:29:46.387Z,14.40
2022-12-04T21:32:13.700Z,12.63
2022-12-04T21:34:41.048Z,14.37
2022-12-04T21:37:08.667Z,13.33
2022-12-04T21:39:37.486Z,14.03
2022-12-04T21:42:23.381Z,15.37
2022-12-04T21:44:51.050Z,20.00
2022-12-04T21:47:18.826Z,15.53
2022-12-04T21:49:47.808Z,15.57
2022-12-04T21:52:17.367Z,15.27
2022-12-04T21:54:45.355Z,14.83
2022-12-04T21:57:12.754Z,13.90
2022-12-04T21:59:40.206Z,13.80
2022-12-04T22:02:10.700Z,16.27
2022-12-04T22:04:38.429Z,15.00
2022-12-04T22:07:07.389Z,15.03
2022-12-04T22:09:36.216Z,15.97
2022-12-04T22:12:10.380Z,12.50
2022-12-04T22:14:51.182Z,14.50
2022-12-04T22:17:18.635Z,17.10
2022-12-04T22:19:46.136Z,15.83
2022-12-04T22:22:13.683Z,15.87
2022-12-04T22:24:41.915Z,15.43
2022-12-04T22:27:14.998Z,17.20
2022-12-04T22:29:50.304Z,12.90
2022-12-04T22:32:19.447Z,15.10
2022-12-04T22:34:49.284Z,15.40
2022-12-04T22:37:17.098Z,15.47
2022-12-04T22:39:44.626Z,14.33
2022-12-04T22:42:11.915Z,14.53
2022-12-04T22:44:39.484Z,13.70
2022-12-04T22:47:07.106Z,12.63
2022-12-04T22:49:34.533Z,14.03
2022-12-04T22:52:02.018Z,15.17
2022-12-04T22:54:29.796Z,13.47
2022-12-04T22:56:57.116Z,15.07
2022-12-04T22:59:24.491Z,13.93
2022-12-04T23:01:51.819Z,13.10
2022-12-04T23:04:19.245Z,14.03
2022-12-04T23:06:47.114Z,12.43
2022-12-04T23:09:17.150Z,13.87
2022-12-04T23:11:46.058Z,14.13
2022-12-04T23:14:15.512Z,14.90
2022-12-04T23:16:43.715Z,15.93
2022-12-04T23:19:13.927Z,14.60
2022-12-04T23:21:42.156Z,15.20
2022-12-04T23:24:11.122Z,12.77
2022-12-04T23:26:44.991Z,11.63
2022-12-04T23:29:44.376Z,13.37
2022-12-04T23:32:00.561Z,16.53
2022-12-04T23:34:28.163Z,16.20
2022-12-04T23:36:55.602Z,14.73
2022-12-04T23:39:23.045Z,16.20
2022-12-04T23:41:50.486Z,12.80
2022-12-04T23:44:18.423Z,14.10
2022-12-04T23:46:46.012Z,14.93
2022-12-04T23:49:13.519Z,12.47
2022-12-04T23:51:41.049Z,16.80
2022-12-04T23:54:08.505Z,14.63
2022-12-04T23:56:35.967Z,17.10
2022-12-04T23:59:03.530Z,13.37
